Aérodrome :
LOGIN :

S'inscrire | Disclaimer

   EN    FR    IT 

 










Légende :    VFR   VFR Marginal   IFR   IFR Intensif   IFR Très Intensif
Visi : 
Plafond : 
>= 8 km
>= 3000ft
5 à 8 km
1000 à 3000 ft
1500m à 5 km
500 à 1000 ft
800 à 1500m
200 à 500 ft
< 800m
< 200 ft
Symboles :   Orages  Brouillard  Fortes neiges  Fortes précipitations  Vent > 20 kt
SIGMETs :   Divers  Orages  Givrage  Turbulence  Onde Orograph.  Cendres Volcan.







- Altitude de l'aérodrome : 220 ft
- Code IATA : CWL
- Voir les cartes d'approche


EGFF - Cardiff Rhoose

DERNIER METAR :
  • 180620Z AUTO 32007KT 9999 SCT021/// SCT030/// //////CB 13/12 Q1010

METARs EXPIRÉS :
  • 180550Z AUTO 31006KT 9999 -RA BKN022/// //////CB 13/11 Q1010
  • 180520Z AUTO 30007KT 9999 FEW024 SCT037 13/11 Q1010
  • 180450Z AUTO 30009KT 9999 FEW023 BKN043 13/12 Q1010
  • 180420Z AUTO 30011KT 9999 NCD 14/11 Q1009
  • 180350Z AUTO 28011KT 9999 FEW029/// //////CB 14/12 Q1009

TAF TAF EGFF
Valide du 18 à 06h jusqu'au 19 à 06h UTC


180454Z 1806/1906 27010KT 9999 SCT020
TEMPO 1806/1809 26015G25KT 5000 SHRA BKN014
BECMG 1809/1812 26020G32KT
TEMPO 1809/1824 5000 SHRA
PROB40
TEMPO 1811/1818 3000 +SHRA BKN014 BKN020CB
TEMPO 1817/1824 26028G42KT
BECMG 1900/1903 29012KT
ATIS : +44 1446 729 319
Pas de NOTAMs connus pour ce terrain.



MET'MAP, la Météo Aéronautique d'un coup d'oeil ! - Copyright ORBIFLY Décembre 2007 - Disclaimer

ORBIFLY MET'MAP TEAM :

Programmation & Développement : Alexandra Zaïnal
Conception & Développement : Baudouin d'Aumeries
Co-Programmation & Développement : Marc-Olivier Méhu
Soutien technique & logistique : Manuel Goepfert

Contact : metmap@orbifly.com




SOURCES & CREDITS :

   NOAA